Time;durP1;ratioP1;P1;durP2;ratioP2;P2;SDS_P1;SDS_P2;PMS_P1;PMS_P2;Temp;Humidity;BMP_temperature;BMP_pressure;BME280_temperature;BME280_humidity;BME280_pressure;Samples;Min_cycle;Max_cycle;Signal;HPM_P1;HPM_P2
2021/06/07 00:00:48;;;;;;;38.50;35.10;;;;;;;;;;4949097;28;20210;-60
2021/06/07 00:03:14;;;;;;;40.30;36.70;;;;;;;;;;4948153;28;20665;-60
2021/06/07 00:05:39;;;;;;;36.47;33.08;;;;;;;;;;4949374;28;20223;-61
2021/06/07 00:08:04;;;;;;;39.50;35.70;;;;;;;;;;4949626;29;20179;-61
2021/06/07 00:10:29;;;;;;;36.83;33.30;;;;;;;;;;4950671;29;20191;-60
2021/06/07 00:12:54;;;;;;;37.93;34.50;;;;;;;;;;4949365;29;20201;-62
2021/06/07 00:15:21;;;;;;;40.57;36.87;;;;;;;;;;4949599;29;20190;-62
2021/06/07 00:17:46;;;;;;;37.17;33.70;;;;;;;;;;4949785;29;20634;-60
2021/06/07 00:20:14;;;;;;;37.77;34.27;;;;;;;;;;4950289;29;20615;-61
2021/06/07 00:22:39;;;;;;;38.70;35.20;;;;;;;;;;4948724;29;20176;-61
2021/06/07 00:25:06;;;;;;;36.00;32.60;;;;;;;;;;4950071;29;21043;-61
2021/06/07 00:27:31;;;;;;;39.50;35.80;;;;;;;;;;4949836;29;20180;-60
2021/06/07 00:29:56;;;;;;;38.07;34.30;;;;;;;;;;4949399;28;21300;-61
2021/06/07 00:32:21;;;;;;;37.85;34.33;;;;;;;;;;4949637;29;20190;-60
2021/06/07 00:34:46;;;;;;;37.08;33.75;;;;;;;;;;4949004;29;20185;-60
2021/06/07 00:37:12;;;;;;;39.35;35.63;;;;;;;;;;4949203;29;20238;-60
2021/06/07 00:39:37;;;;;;;37.15;33.75;;;;;;;;;;4949496;29;20306;-61
2021/06/07 00:42:02;;;;;;;37.40;33.80;;;;;;;;;;4948797;29;20171;-61
2021/06/07 00:44:27;;;;;;;37.83;34.20;;;;;;;;;;4957140;28;20207;-61
2021/06/07 00:46:53;;;;;;;38.37;34.57;;;;;;;;;;4949381;28;20199;-61
2021/06/07 00:49:18;;;;;;;37.87;34.30;;;;;;;;;;4955747;28;20610;-62
2021/06/07 00:51:44;;;;;;;39.17;35.23;;;;;;;;;;4948423;29;20190;-62
2021/06/07 00:54:09;;;;;;;40.73;36.57;;;;;;;;;;4949025;29;20293;-61
2021/06/07 00:56:34;;;;;;;39.87;36.07;;;;;;;;;;4947518;29;20614;-62
2021/06/07 00:58:59;;;;;;;38.33;34.63;;;;;;;;;;4946426;29;20178;-61
2021/06/07 01:01:25;;;;;;;41.00;37.10;;;;;;;;;;4949363;29;20193;-61
2021/06/07 01:03:51;;;;;;;38.03;34.63;;;;;;;;;;4943326;28;20393;-61
2021/06/07 01:06:17;;;;;;;36.77;33.37;;;;;;;;;;4948452;29;20191;-63
2021/06/07 01:08:42;;;;;;;38.40;34.77;;;;;;;;;;4949477;29;20690;-60
2021/06/07 01:11:08;;;;;;;38.73;34.93;;;;;;;;;;4949049;29;20702;-61
2021/06/07 01:13:33;;;;;;;40.43;36.73;;;;;;;;;;4947109;28;20736;-61
2021/06/07 01:15:58;;;;;;;39.03;35.47;;;;;;;;;;4951278;28;20654;-62
2021/06/07 01:18:24;;;;;;;40.33;36.43;;;;;;;;;;4948994;29;20179;-61
2021/06/07 01:20:51;;;;;;;40.10;36.30;;;;;;;;;;4948223;29;20242;-62
2021/06/07 01:23:16;;;;;;;41.23;37.33;;;;;;;;;;4949816;28;20657;-61
2021/06/07 01:25:42;;;;;;;39.72;36.03;;;;;;;;;;4948384;29;20602;-60
2021/06/07 01:28:08;;;;;;;36.50;33.07;;;;;;;;;;4948235;29;20664;-60
2021/06/07 01:30:38;;;;;;;39.50;35.63;;;;;;;;;;4948087;29;20602;-60
2021/06/07 01:33:05;;;;;;;38.47;34.77;;;;;;;;;;4947787;29;20735;-61
2021/06/07 01:35:30;;;;;;;38.73;35.13;;;;;;;;;;4947996;29;20709;-61
2021/06/07 01:37:56;;;;;;;38.57;34.80;;;;;;;;;;4948293;29;21305;-61
2021/06/07 01:40:22;;;;;;;37.67;34.07;;;;;;;;;;4947605;29;20242;-60
2021/06/07 01:42:48;;;;;;;37.67;34.03;;;;;;;;;;4948953;28;20266;-61
2021/06/07 01:45:15;;;;;;;39.00;35.20;;;;;;;;;;4948272;29;20793;-62
2021/06/07 01:47:41;;;;;;;38.17;34.47;;;;;;;;;;4947899;29;20198;-60
2021/06/07 01:50:07;;;;;;;39.97;36.10;;;;;;;;;;4948212;29;20607;-61
2021/06/07 01:52:33;;;;;;;42.10;37.80;;;;;;;;;;4942961;29;20202;-60
2021/06/07 01:54:58;;;;;;;37.43;33.90;;;;;;;;;;4947076;29;20698;-61
2021/06/07 01:57:23;;;;;;;39.80;35.90;;;;;;;;;;4948305;29;20707;-61
2021/06/07 01:59:48;;;;;;;39.13;35.38;;;;;;;;;;4944507;29;20542;-61
2021/06/07 02:02:14;;;;;;;36.65;32.97;;;;;;;;;;4947804;29;20172;-61
2021/06/07 02:04:39;;;;;;;38.93;35.27;;;;;;;;;;4943876;28;20229;-61
2021/06/07 02:07:04;;;;;;;43.72;39.42;;;;;;;;;;4947624;29;20541;-61
2021/06/07 02:09:29;;;;;;;40.07;36.10;;;;;;;;;;4947704;29;20753;-61
2021/06/07 02:11:54;;;;;;;39.77;35.90;;;;;;;;;;4948197;29;20174;-61
2021/06/07 02:14:19;;;;;;;41.07;37.00;;;;;;;;;;4947405;29;20755;-61
2021/06/07 02:16:45;;;;;;;39.43;35.53;;;;;;;;;;4948451;29;20654;-61
2021/06/07 02:19:10;;;;;;;37.23;33.63;;;;;;;;;;4947394;29;20593;-61
2021/06/07 02:21:36;;;;;;;37.70;33.90;;;;;;;;;;4947305;29;20190;-61
2021/06/07 02:24:06;;;;;;;39.30;35.50;;;;;;;;;;4947193;29;20187;-61
2021/06/07 02:26:31;;;;;;;39.87;36.03;;;;;;;;;;4948259;29;20607;-61
2021/06/07 02:29:07;;;;;;;39.80;36.07;;;;;;;;;;4930171;29;20976;-61
2021/06/07 02:31:32;;;;;;;39.97;36.07;;;;;;;;;;4948024;29;20246;-62
2021/06/07 02:33:58;;;;;;;39.47;35.60;;;;;;;;;;4946719;29;20650;-62
2021/06/07 02:36:25;;;;;;;41.10;37.10;;;;;;;;;;4947877;28;20193;-61
2021/06/07 02:38:51;;;;;;;39.80;35.93;;;;;;;;;;4946536;29;20702;-61
2021/06/07 02:41:17;;;;;;;38.57;34.97;;;;;;;;;;4947469;28;20596;-61
2021/06/07 02:43:42;;;;;;;39.90;36.00;;;;;;;;;;4947689;29;20178;-60
2021/06/07 02:46:08;;;;;;;42.07;37.73;;;;;;;;;;4948063;29;20783;-61
2021/06/07 02:48:33;;;;;;;41.13;37.10;;;;;;;;;;4947905;29;20186;-61
2021/06/07 02:50:58;;;;;;;41.83;37.53;;;;;;;;;;4946523;29;20712;-61
2021/06/07 02:53:24;;;;;;;43.60;39.13;;;;;;;;;;4945796;28;20229;-60
2021/06/07 02:55:51;;;;;;;40.10;36.13;;;;;;;;;;4947573;29;20183;-60
2021/06/07 02:58:16;;;;;;;41.70;37.50;;;;;;;;;;4946733;29;20944;-61
2021/06/07 03:00:41;;;;;;;39.57;35.70;;;;;;;;;;4947230;29;20594;-62
2021/06/07 03:03:07;;;;;;;41.92;37.88;;;;;;;;;;4944578;29;20221;-62
2021/06/07 03:05:33;;;;;;;39.20;35.07;;;;;;;;;;4946297;28;20237;-62
2021/06/07 03:07:59;;;;;;;41.53;37.37;;;;;;;;;;4946499;29;20885;-62
2021/06/07 03:10:24;;;;;;;39.53;35.53;;;;;;;;;;4946701;29;20594;-62
2021/06/07 03:12:49;;;;;;;39.20;35.50;;;;;;;;;;4946971;28;20203;-62
2021/06/07 03:15:15;;;;;;;42.77;38.47;;;;;;;;;;4946307;29;20179;-63
2021/06/07 03:17:41;;;;;;;38.80;34.80;;;;;;;;;;4947436;29;20182;-62
2021/06/07 03:20:08;;;;;;;40.13;36.10;;;;;;;;;;4947346;29;20607;-62
2021/06/07 03:22:34;;;;;;;41.13;36.87;;;;;;;;;;4946610;29;20610;-61
2021/06/07 03:24:59;;;;;;;39.00;35.20;;;;;;;;;;4946837;28;20603;-61
2021/06/07 03:27:24;;;;;;;39.30;35.40;;;;;;;;;;4946175;29;20940;-60
2021/06/07 03:29:49;;;;;;;38.80;34.90;;;;;;;;;;4946683;29;20543;-60
2021/06/07 03:32:15;;;;;;;41.20;37.40;;;;;;;;;;4944544;29;20181;-60
2021/06/07 03:34:40;;;;;;;39.60;35.90;;;;;;;;;;4945414;29;20258;-61
2021/06/07 03:37:06;;;;;;;41.53;37.53;;;;;;;;;;4948743;28;20255;-59
2021/06/07 03:39:32;;;;;;;38.23;34.40;;;;;;;;;;4959781;28;20713;-60
2021/06/07 03:41:57;;;;;;;39.23;35.43;;;;;;;;;;4951828;28;20246;-60
2021/06/07 03:44:22;;;;;;;37.17;33.47;;;;;;;;;;4957749;28;20606;-60
2021/06/07 03:46:47;;;;;;;37.63;33.88;;;;;;;;;;4946984;28;20167;-61
2021/06/07 03:49:12;;;;;;;38.57;34.73;;;;;;;;;;4950202;29;20217;-60
2021/06/07 03:51:38;;;;;;;40.65;36.95;;;;;;;;;;4950686;29;20211;-60
2021/06/07 03:54:03;;;;;;;38.43;34.40;;;;;;;;;;4951116;28;20314;-61
2021/06/07 03:56:28;;;;;;;36.73;32.87;;;;;;;;;;4957235;28;20174;-61
2021/06/07 03:58:54;;;;;;;39.15;35.25;;;;;;;;;;4952296;28;20175;-61
2021/06/07 04:01:19;;;;;;;39.95;35.75;;;;;;;;;;4942935;28;20191;-61
2021/06/07 04:03:44;;;;;;;39.03;35.17;;;;;;;;;;4948853;28;20660;-61
2021/06/07 04:06:09;;;;;;;38.90;35.13;;;;;;;;;;4949775;29;20176;-60
2021/06/07 04:08:35;;;;;;;38.37;34.47;;;;;;;;;;4947785;29;20197;-60
2021/06/07 04:11:00;;;;;;;38.07;34.27;;;;;;;;;;4947687;29;20180;-60
2021/06/07 04:13:25;;;;;;;38.72;34.85;;;;;;;;;;4949663;29;20725;-59
2021/06/07 04:15:50;;;;;;;35.42;31.63;;;;;;;;;;4947371;29;20227;-61
2021/06/07 04:18:15;;;;;;;37.70;34.00;;;;;;;;;;4948771;29;20281;-61
2021/06/07 04:20:41;;;;;;;38.42;34.67;;;;;;;;;;4949053;28;20186;-61
2021/06/07 04:23:07;;;;;;;36.63;33.20;;;;;;;;;;4948063;29;20277;-61
2021/06/07 04:25:33;;;;;;;41.30;37.30;;;;;;;;;;4946520;29;20278;-60
2021/06/07 04:27:59;;;;;;;38.27;34.60;;;;;;;;;;4948105;29;20175;-60
2021/06/07 04:30:24;;;;;;;36.50;33.00;;;;;;;;;;4948013;29;20603;-61
2021/06/07 04:32:50;;;;;;;40.43;36.47;;;;;;;;;;4944682;29;20207;-61
2021/06/07 04:35:17;;;;;;;38.07;34.17;;;;;;;;;;4948467;29;20604;-61
2021/06/07 04:37:49;;;;;;;38.00;34.33;;;;;;;;;;4942191;28;20605;-61
2021/06/07 04:40:14;;;;;;;37.53;33.90;;;;;;;;;;4946334;29;20592;-61
2021/06/07 04:42:40;;;;;;;35.80;32.47;;;;;;;;;;4945505;29;20665;-61
2021/06/07 04:45:06;;;;;;;36.05;32.47;;;;;;;;;;4946106;29;20179;-62
2021/06/07 04:47:31;;;;;;;36.30;32.67;;;;;;;;;;4944043;28;20191;-61
2021/06/07 04:49:56;;;;;;;36.80;33.40;;;;;;;;;;4946499;29;20642;-62
2021/06/07 04:52:22;;;;;;;38.58;34.58;;;;;;;;;;4945402;29;20188;-63
2021/06/07 04:54:47;;;;;;;38.87;35.03;;;;;;;;;;4946110;29;20209;-63
2021/06/07 04:57:12;;;;;;;36.40;32.50;;;;;;;;;;4944110;29;20610;-63
2021/06/07 04:59:37;;;;;;;37.90;31.17;;;;;;;;;;4941662;29;20238;-61
2021/06/07 05:02:03;;;;;;;37.28;33.15;;;;;;;;;;4946184;29;20689;-62
2021/06/07 05:04:28;;;;;;;36.73;33.23;;;;;;;;;;4942627;28;20227;-62
2021/06/07 05:06:53;;;;;;;35.30;31.88;;;;;;;;;;4945360;29;20542;-62
2021/06/07 05:09:18;;;;;;;34.55;31.15;;;;;;;;;;4945575;29;20709;-62
2021/06/07 05:11:44;;;;;;;34.70;31.45;;;;;;;;;;4944665;29;20181;-62
2021/06/07 05:14:09;;;;;;;35.00;31.63;;;;;;;;;;4945141;29;20216;-63
2021/06/07 05:16:34;;;;;;;34.95;31.35;;;;;;;;;;4950389;28;20226;-62
2021/06/07 05:18:59;;;;;;;36.83;33.23;;;;;;;;;;4947235;29;20181;-64
2021/06/07 05:21:24;;;;;;;35.53;31.92;;;;;;;;;;4950503;28;20695;-62
2021/06/07 05:23:49;;;;;;;33.43;30.30;;;;;;;;;;4952506;28;20239;-62
2021/06/07 05:26:15;;;;;;;34.70;31.50;;;;;;;;;;4957716;28;20543;-62
2021/06/07 05:28:40;;;;;;;32.80;29.60;;;;;;;;;;4952874;28;20177;-62
2021/06/07 05:31:05;;;;;;;32.30;29.40;;;;;;;;;;4948653;29;20207;-62
2021/06/07 05:33:30;;;;;;;37.27;33.60;;;;;;;;;;4947384;29;20492;-62
2021/06/07 05:35:55;;;;;;;36.75;33.35;;;;;;;;;;4948585;28;20258;-63
2021/06/07 05:38:21;;;;;;;29.97;27.33;;;;;;;;;;4947477;29;20197;-62
2021/06/07 05:40:48;;;;;;;32.20;29.20;;;;;;;;;;4948673;29;20589;-62
2021/06/07 05:43:17;;;;;;;34.07;30.90;;;;;;;;;;4937961;29;20286;-62
2021/06/07 05:45:43;;;;;;;30.10;27.60;;;;;;;;;;4943117;29;20602;-63
2021/06/07 05:48:08;;;;;;;29.80;27.07;;;;;;;;;;4948237;29;21431;-63
2021/06/07 05:50:34;;;;;;;29.73;26.80;;;;;;;;;;4948578;29;20259;-63
2021/06/07 05:52:59;;;;;;;29.67;27.00;;;;;;;;;;4948760;29;20200;-62
2021/06/07 05:55:25;;;;;;;28.00;25.60;;;;;;;;;;4948312;29;20611;-62
2021/06/07 05:57:52;;;;;;;30.07;27.37;;;;;;;;;;4948572;29;20186;-62
2021/06/07 06:00:19;;;;;;;28.13;25.50;;;;;;;;;;4946981;28;20654;-63
2021/06/07 06:02:44;;;;;;;29.87;27.03;;;;;;;;;;4948777;28;20648;-63
2021/06/07 06:05:10;;;;;;;29.73;26.97;;;;;;;;;;4948798;28;20662;-62
2021/06/07 06:07:36;;;;;;;30.07;27.23;;;;;;;;;;4950190;28;20570;-63
2021/06/07 06:10:01;;;;;;;28.40;25.50;;;;;;;;;;4947942;28;20609;-63
2021/06/07 06:12:27;;;;;;;29.23;26.50;;;;;;;;;;4951633;28;20200;-62
2021/06/07 06:14:52;;;;;;;29.03;26.43;;;;;;;;;;4952548;28;20234;-62
2021/06/07 06:17:18;;;;;;;27.37;24.97;;;;;;;;;;4941989;28;20615;-62
2021/06/07 06:19:43;;;;;;;26.53;24.00;;;;;;;;;;4945119;28;20182;-62
2021/06/07 06:22:08;;;;;;;26.43;24.13;;;;;;;;;;4945357;28;20191;-62
2021/06/07 06:24:34;;;;;;;28.67;25.88;;;;;;;;;;4945623;28;20181;-62
2021/06/07 06:26:59;;;;;;;24.67;22.53;;;;;;;;;;4927656;29;20248;-62
2021/06/07 06:29:24;;;;;;;29.17;26.55;;;;;;;;;;4945458;29;20517;-62
2021/06/07 06:31:49;;;;;;;28.60;25.87;;;;;;;;;;4945666;28;20179;-62
2021/06/07 06:34:15;;;;;;;28.30;25.87;;;;;;;;;;4946378;28;20245;-63
2021/06/07 06:36:40;;;;;;;25.60;23.40;;;;;;;;;;4949995;28;20264;-62
2021/06/07 06:39:06;;;;;;;25.30;23.20;;;;;;;;;;4930981;29;20195;-63
2021/06/07 06:41:31;;;;;;;26.07;23.87;;;;;;;;;;4951331;28;20197;-62
2021/06/07 06:43:57;;;;;;;25.43;23.07;;;;;;;;;;4946042;29;20188;-62
2021/06/07 06:46:22;;;;;;;25.80;23.60;;;;;;;;;;4963265;28;20187;-63
2021/06/07 06:48:47;;;;;;;25.27;23.17;;;;;;;;;;4963416;28;20187;-61
2021/06/07 06:51:13;;;;;;;25.33;23.13;;;;;;;;;;4948257;29;20183;-62
2021/06/07 06:53:38;;;;;;;27.40;24.85;;;;;;;;;;4958928;28;20654;-62
2021/06/07 06:56:03;;;;;;;27.80;25.40;;;;;;;;;;4945950;29;20173;-62
2021/06/07 06:58:28;;;;;;;25.90;23.60;;;;;;;;;;4949261;28;20666;-61
2021/06/07 07:00:53;;;;;;;28.38;25.77;;;;;;;;;;4948953;28;20173;-61
2021/06/07 07:03:20;;;;;;;27.03;24.30;;;;;;;;;;4952776;28;20277;-62
2021/06/07 07:05:46;;;;;;;24.60;22.40;;;;;;;;;;4950417;28;20231;-61
2021/06/07 07:08:11;;;;;;;26.10;23.57;;;;;;;;;;4948230;28;21204;-61
2021/06/07 07:10:38;;;;;;;25.30;23.13;;;;;;;;;;4946027;28;20192;-61
2021/06/07 07:13:03;;;;;;;27.30;24.70;;;;;;;;;;4946279;29;20225;-62
2021/06/07 07:15:29;;;;;;;25.40;23.13;;;;;;;;;;4951219;29;21104;-61
2021/06/07 07:17:54;;;;;;;24.30;22.30;;;;;;;;;;4940441;29;20183;-62
2021/06/07 07:20:19;;;;;;;26.05;23.85;;;;;;;;;;4931973;29;20449;-62
2021/06/07 07:22:44;;;;;;;27.20;24.80;;;;;;;;;;4950202;29;20192;-62
2021/06/07 07:25:10;;;;;;;28.25;25.65;;;;;;;;;;4951298;29;20644;-62
2021/06/07 07:27:36;;;;;;;25.90;23.70;;;;;;;;;;4950767;29;20183;-62
2021/06/07 07:30:05;;;;;;;26.50;24.20;;;;;;;;;;4950729;29;20315;-62
2021/06/07 07:32:30;;;;;;;29.00;26.50;;;;;;;;;;4951211;28;20580;-62
2021/06/07 07:34:55;;;;;;;27.77;25.33;;;;;;;;;;4967681;28;21157;-62
2021/06/07 07:37:21;;;;;;;31.43;28.73;;;;;;;;;;4960982;28;20229;-63
2021/06/07 07:39:47;;;;;;;29.33;26.53;;;;;;;;;;4946930;29;20551;-62
2021/06/07 07:42:12;;;;;;;24.23;22.23;;;;;;;;;;4951047;29;20208;-62
2021/06/07 07:44:37;;;;;;;27.50;24.90;;;;;;;;;;4950077;29;21155;-62
2021/06/07 07:47:05;;;;;;;24.10;22.00;;;;;;;;;;4950095;29;20870;-62
2021/06/07 07:49:31;;;;;;;25.67;23.40;;;;;;;;;;4949959;29;20240;-62
2021/06/07 07:51:56;;;;;;;25.27;23.07;;;;;;;;;;4950373;29;20608;-62
2021/06/07 07:54:21;;;;;;;28.27;25.80;;;;;;;;;;4950082;29;20600;-62
2021/06/07 07:56:46;;;;;;;28.33;25.80;;;;;;;;;;4950159;29;20647;-62
2021/06/07 07:59:11;;;;;;;25.67;23.20;;;;;;;;;;4950104;29;20651;-62
2021/06/07 08:01:37;;;;;;;26.20;23.90;;;;;;;;;;4950122;29;20182;-62
2021/06/07 08:04:02;;;;;;;25.13;23.03;;;;;;;;;;4952775;28;20323;-62
2021/06/07 08:06:28;;;;;;;26.60;24.30;;;;;;;;;;4970027;28;20186;-62
2021/06/07 08:08:53;;;;;;;29.10;26.60;;;;;;;;;;4969584;28;20631;-62
2021/06/07 08:11:20;;;;;;;27.73;25.20;;;;;;;;;;4967800;28;20695;-62
2021/06/07 08:13:45;;;;;;;26.30;23.90;;;;;;;;;;4965862;28;20200;-64
2021/06/07 08:16:10;;;;;;;24.43;22.33;;;;;;;;;;4969438;28;21087;-62
2021/06/07 08:18:35;;;;;;;28.90;26.10;;;;;;;;;;4969184;28;20182;-62
2021/06/07 08:21:01;;;;;;;26.23;24.03;;;;;;;;;;4969210;28;20176;-62
2021/06/07 08:23:26;;;;;;;26.75;24.45;;;;;;;;;;4968576;28;20232;-62
2021/06/07 08:25:51;;;;;;;26.37;24.20;;;;;;;;;;4968930;28;20215;-62
2021/06/07 08:28:16;;;;;;;24.40;22.40;;;;;;;;;;4968974;28;20189;-61
2021/06/07 08:30:41;;;;;;;23.73;21.73;;;;;;;;;;4969295;28;20539;-62
2021/06/07 08:33:06;;;;;;;25.70;23.43;;;;;;;;;;4981115;28;20526;-62
2021/06/07 08:35:32;;;;;;;24.33;22.33;;;;;;;;;;4988055;28;20180;-62
2021/06/07 08:37:57;;;;;;;26.10;23.90;;;;;;;;;;4974300;28;20673;-62
2021/06/07 08:40:23;;;;;;;24.10;22.00;;;;;;;;;;4968611;28;20168;-62
2021/06/07 08:42:48;;;;;;;25.67;23.33;;;;;;;;;;4968952;28;20175;-62
2021/06/07 08:45:15;;;;;;;26.57;24.27;;;;;;;;;;4969252;28;20505;-62
2021/06/07 08:47:41;;;;;;;23.47;21.40;;;;;;;;;;4967876;28;20350;-63
2021/06/07 08:50:06;;;;;;;28.73;26.20;;;;;;;;;;4968677;28;20674;-63
2021/06/07 08:52:32;;;;;;;24.90;22.87;;;;;;;;;;4968527;28;20181;-63
2021/06/07 08:54:57;;;;;;;26.00;23.63;;;;;;;;;;4968338;28;20218;-63
2021/06/07 08:57:22;;;;;;;27.43;24.93;;;;;;;;;;4967883;28;20676;-62
2021/06/07 08:59:47;;;;;;;25.80;23.50;;;;;;;;;;4968527;28;20167;-63
2021/06/07 09:02:13;;;;;;;25.50;23.37;;;;;;;;;;4969205;28;20221;-62
2021/06/07 09:04:51;;;;;;;24.63;22.37;;;;;;;;;;4968104;28;20249;-63
2021/06/07 09:07:17;;;;;;;23.80;21.70;;;;;;;;;;4957181;28;20216;-62
2021/06/07 09:10:02;;;;;;;29.00;26.20;;;;;;;;;;4968267;28;20583;-63
2021/06/07 09:12:28;;;;;;;25.47;21.47;;;;;;;;;;4969018;28;20648;-62
2021/06/07 09:14:53;;;;;;;24.75;22.52;;;;;;;;;;4967851;28;21042;-62
2021/06/07 09:17:19;;;;;;;26.20;23.70;;;;;;;;;;4967922;28;20196;-62
2021/06/07 09:19:44;;;;;;;25.50;23.17;;;;;;;;;;4968028;28;20643;-62
2021/06/07 09:22:20;;;;;;;26.53;24.37;;;;;;;;;;4957484;28;20688;-62
2021/06/07 09:25:04;;;;;;;26.43;24.10;;;;;;;;;;4966673;28;20294;-62
2021/06/07 09:27:29;;;;;;;23.63;21.77;;;;;;;;;;4967858;28;21038;-62
2021/06/07 09:29:54;;;;;;;26.02;23.90;;;;;;;;;;4968542;28;20679;-62
2021/06/07 09:32:20;;;;;;;29.43;26.60;;;;;;;;;;4980430;28;20182;-63
2021/06/07 09:34:45;;;;;;;28.27;25.77;;;;;;;;;;4967693;28;20210;-62
2021/06/07 09:37:11;;;;;;;25.40;23.33;;;;;;;;;;4967710;28;20200;-62
2021/06/07 09:39:37;;;;;;;26.87;24.47;;;;;;;;;;4968181;28;20542;-62
2021/06/07 09:42:04;;;;;;;26.83;24.43;;;;;;;;;;4968240;28;20592;-62
2021/06/07 09:44:30;;;;;;;26.70;24.37;;;;;;;;;;4967428;28;20197;-62
2021/06/07 09:47:05;;;;;;;22.53;20.43;;;;;;;;;;4967666;28;21136;-62
2021/06/07 09:49:36;;;;;;;23.67;21.67;;;;;;;;;;4968308;28;21231;-63
2021/06/07 09:52:01;;;;;;;26.53;24.00;;;;;;;;;;4967722;28;21166;-63
2021/06/07 09:54:27;;;;;;;25.60;23.40;;;;;;;;;;4967577;28;20641;-63
2021/06/07 09:56:52;;;;;;;24.23;22.30;;;;;;;;;;4967843;28;20170;-63
2021/06/07 09:59:32;;;;;;;25.83;23.63;;;;;;;;;;4967766;28;20301;-63
2021/06/07 10:01:58;;;;;;;25.20;22.77;;;;;;;;;;4967515;28;20648;-63
2021/06/07 10:04:42;;;;;;;27.57;25.17;;;;;;;;;;4967522;28;20680;-63
2021/06/07 10:07:07;;;;;;;23.77;21.67;;;;;;;;;;4967389;28;20832;-63
2021/06/07 10:09:33;;;;;;;23.03;21.23;;;;;;;;;;4967708;28;20590;-63
2021/06/07 10:11:58;;;;;;;23.13;21.02;;;;;;;;;;4967852;28;20179;-63
2021/06/07 10:14:23;;;;;;;26.83;24.65;;;;;;;;;;4967089;28;20210;-63
2021/06/07 10:16:56;;;;;;;23.53;21.53;;;;;;;;;;4967258;28;20197;-63
2021/06/07 10:19:31;;;;;;;22.50;20.63;;;;;;;;;;4967472;28;20220;-63
2021/06/07 10:21:56;;;;;;;23.40;21.30;;;;;;;;;;4967403;28;20590;-63
2021/06/07 10:24:22;;;;;;;26.13;23.93;;;;;;;;;;4966868;28;20573;-63
2021/06/07 10:26:47;;;;;;;21.73;19.93;;;;;;;;;;4967419;28;20803;-63
2021/06/07 10:29:12;;;;;;;22.70;20.80;;;;;;;;;;4970147;28;20266;-63
2021/06/07 10:31:38;;;;;;;24.17;22.17;;;;;;;;;;4978873;28;20275;-63
2021/06/07 10:34:05;;;;;;;22.57;20.77;;;;;;;;;;4964316;28;20914;-62
2021/06/07 10:36:35;;;;;;;25.70;23.67;;;;;;;;;;4966838;28;20580;-62
2021/06/07 10:39:09;;;;;;;22.50;20.70;;;;;;;;;;4967003;28;20617;-62
2021/06/07 10:41:34;;;;;;;22.47;20.40;;;;;;;;;;4966903;28;21144;-62
2021/06/07 10:43:59;;;;;;;21.20;19.60;;;;;;;;;;4967210;28;20661;-63
2021/06/07 10:46:27;;;;;;;21.95;20.17;;;;;;;;;;4969271;28;20941;-63
2021/06/07 10:48:53;;;;;;;23.87;22.00;;;;;;;;;;4971198;28;20650;-63
2021/06/07 10:51:23;;;;;;;23.73;21.43;;;;;;;;;;4971193;28;20572;-63
2021/06/07 10:53:52;;;;;;;21.33;19.63;;;;;;;;;;4970762;28;20617;-63
2021/06/07 10:56:17;;;;;;;22.67;20.77;;;;;;;;;;4970747;28;20614;-63
2021/06/07 10:58:56;;;;;;;22.43;20.73;;;;;;;;;;4970987;28;20603;-63
2021/06/07 11:01:22;;;;;;;22.83;21.03;;;;;;;;;;4971007;28;20187;-63
2021/06/07 11:03:54;;;;;;;23.87;21.83;;;;;;;;;;4970555;28;20619;-63
2021/06/07 11:06:19;;;;;;;22.03;20.23;;;;;;;;;;4970744;28;20179;-63
2021/06/07 11:08:59;;;;;;;22.13;20.17;;;;;;;;;;4970527;28;20687;-64
2021/06/07 11:11:39;;;;;;;24.57;22.50;;;;;;;;;;4971004;28;20313;-64
2021/06/07 11:14:04;;;;;;;24.30;22.17;;;;;;;;;;4970955;28;20646;-64
2021/06/07 11:16:31;;;;;;;23.50;21.55;;;;;;;;;;4969592;28;20586;-63
2021/06/07 11:18:57;;;;;;;22.37;20.47;;;;;;;;;;4969281;28;20184;-63
2021/06/07 11:21:22;;;;;;;25.67;23.57;;;;;;;;;;4970494;28;20607;-64
2021/06/07 11:23:47;;;;;;;23.95;21.88;;;;;;;;;;4970200;28;20572;-64
2021/06/07 11:26:32;;;;;;;21.60;20.00;;;;;;;;;;4970065;28;20180;-63
2021/06/07 11:29:00;;;;;;;22.97;21.17;;;;;;;;;;4971620;28;20245;-64
2021/06/07 11:31:31;;;;;;;22.27;20.57;;;;;;;;;;4970917;28;20566;-64
2021/06/07 11:33:58;;;;;;;22.60;20.63;;;;;;;;;;4970562;28;20758;-62
2021/06/07 11:36:41;;;;;;;21.90;20.20;;;;;;;;;;4970197;28;20672;-62
2021/06/07 11:39:07;;;;;;;22.80;21.00;;;;;;;;;;4970396;28;20966;-62
2021/06/07 11:41:48;;;;;;;21.80;19.90;;;;;;;;;;4970440;28;20643;-62
2021/06/07 11:44:14;;;;;;;21.53;19.93;;;;;;;;;;4970290;28;21282;-62
2021/06/07 11:46:39;;;;;;;23.00;21.10;;;;;;;;;;4970386;28;20585;-62
2021/06/07 11:49:04;;;;;;;22.07;20.37;;;;;;;;;;4969150;28;20231;-62
2021/06/07 11:51:31;;;;;;;21.10;19.48;;;;;;;;;;4969906;28;20181;-62
2021/06/07 11:53:56;;;;;;;21.67;20.07;;;;;;;;;;4970049;28;20244;-63
2021/06/07 11:56:22;;;;;;;19.20;17.80;;;;;;;;;;4970098;28;20600;-63
2021/06/07 11:58:47;;;;;;;20.40;18.87;;;;;;;;;;4968914;28;20934;-63
2021/06/07 12:01:13;;;;;;;19.83;18.33;;;;;;;;;;4970187;28;20222;-64
2021/06/07 12:03:42;;;;;;;20.33;18.73;;;;;;;;;;4969962;28;20289;-64
2021/06/07 12:06:07;;;;;;;19.90;18.40;;;;;;;;;;4969754;28;20206;-61
2021/06/07 12:08:32;;;;;;;21.80;20.00;;;;;;;;;;4969093;28;20623;-62
2021/06/07 12:10:58;;;;;;;21.98;20.13;;;;;;;;;;4969830;28;20189;-62
2021/06/07 12:13:28;;;;;;;21.63;20.00;;;;;;;;;;4970102;28;20318;-62
2021/06/07 12:15:59;;;;;;;21.20;19.40;;;;;;;;;;4970020;28;20569;-62
2021/06/07 12:18:31;;;;;;;20.30;18.73;;;;;;;;;;4969689;28;20603;-62
2021/06/07 12:21:00;;;;;;;18.47;17.27;;;;;;;;;;4969523;28;20555;-62
2021/06/07 12:23:29;;;;;;;19.73;18.13;;;;;;;;;;4967268;28;20598;-62
2021/06/07 12:28:17;;;;;;;18.27;16.87;;;;;;;;;;4966117;28;20676;-62
2021/06/07 12:28:48;;;;;;;20.30;18.80;;;;;;;;;;4962558;28;20588;-62
2021/06/07 12:31:13;;;;;;;19.23;17.85;;;;;;;;;;4968933;28;20702;-62
2021/06/07 12:33:39;;;;;;;19.00;17.50;;;;;;;;;;4969355;28;20216;-62
2021/06/07 12:36:04;;;;;;;18.40;17.10;;;;;;;;;;4969094;28;20185;-62
2021/06/07 12:38:29;;;;;;;18.33;16.93;;;;;;;;;;4968952;28;20173;-62
2021/06/07 12:40:56;;;;;;;20.40;18.80;;;;;;;;;;4968955;28;20182;-63
2021/06/07 12:43:22;;;;;;;19.47;18.07;;;;;;;;;;4968887;28;20181;-63
2021/06/07 12:46:07;;;;;;;19.47;18.03;;;;;;;;;;4969221;28;20559;-63
2021/06/07 12:48:36;;;;;;;20.20;18.57;;;;;;;;;;4968642;28;20601;-63
2021/06/07 12:51:15;;;;;;;20.00;18.60;;;;;;;;;;4968792;28;20567;-63
2021/06/07 12:53:41;;;;;;;20.43;18.93;;;;;;;;;;4968380;28;20702;-63
2021/06/07 12:56:14;;;;;;;19.73;18.10;;;;;;;;;;4968833;28;20568;-62
2021/06/07 12:58:47;;;;;;;18.50;17.00;;;;;;;;;;4966406;28;20592;-63
2021/06/07 13:01:13;;;;;;;18.57;17.27;;;;;;;;;;4950200;28;20610;-63
2021/06/07 13:03:38;;;;;;;17.40;16.20;;;;;;;;;;4947406;28;20585;-62
2021/06/07 13:06:11;;;;;;;17.73;16.40;;;;;;;;;;4929818;29;20654;-63
2021/06/07 13:09:01;;;;;;;17.33;16.13;;;;;;;;;;4948050;28;20553;-63
2021/06/07 13:11:33;;;;;;;19.17;17.80;;;;;;;;;;4949212;29;20561;-62
2021/06/07 13:13:59;;;;;;;18.40;17.20;;;;;;;;;;4948757;29;20621;-62
2021/06/07 13:16:29;;;;;;;16.87;15.57;;;;;;;;;;4948893;29;20600;-63
2021/06/07 13:19:00;;;;;;;17.77;16.43;;;;;;;;;;4948678;29;20641;-63
2021/06/07 13:21:42;;;;;;;16.90;15.70;;;;;;;;;;4948928;29;21382;-63
2021/06/07 13:24:08;;;;;;;16.77;15.60;;;;;;;;;;4949057;29;20580;-63
2021/06/07 13:26:35;;;;;;;16.20;15.00;;;;;;;;;;4961725;28;21168;-63
2021/06/07 13:29:29;;;;;;;15.90;14.70;;;;;;;;;;4953240;28;20629;-63
2021/06/07 13:31:55;;;;;;;15.43;14.23;;;;;;;;;;4931972;29;21125;-62
2021/06/07 13:34:28;;;;;;;14.93;13.83;;;;;;;;;;4948847;28;20674;-63
2021/06/07 13:37:03;;;;;;;14.20;12.83;;;;;;;;;;4948892;28;20583;-62
2021/06/07 13:39:28;;;;;;;14.20;13.10;;;;;;;;;;4948972;28;20581;-62
2021/06/07 13:41:54;;;;;;;14.37;13.33;;;;;;;;;;4948802;29;21057;-63
2021/06/07 13:44:19;;;;;;;13.20;12.30;;;;;;;;;;4948610;29;20185;-63
2021/06/07 13:46:44;;;;;;;14.40;13.30;;;;;;;;;;4948186;29;20591;-63
2021/06/07 13:49:13;;;;;;;13.70;12.40;;;;;;;;;;4948181;29;20181;-63
2021/06/07 13:51:38;;;;;;;12.10;11.30;;;;;;;;;;4948346;29;20669;-62
2021/06/07 13:54:08;;;;;;;12.50;11.70;;;;;;;;;;4948680;29;20779;-62
2021/06/07 13:56:35;;;;;;;12.93;12.03;;;;;;;;;;4949006;29;20183;-62
2021/06/07 13:59:00;;;;;;;13.67;12.67;;;;;;;;;;4947710;29;20580;-62
2021/06/07 14:01:33;;;;;;;14.13;13.05;;;;;;;;;;4948077;29;20582;-62
2021/06/07 14:03:59;;;;;;;13.30;12.30;;;;;;;;;;4947985;28;20226;-62
2021/06/07 14:06:24;;;;;;;11.23;10.53;;;;;;;;;;4948091;29;20612;-62
2021/06/07 14:08:54;;;;;;;11.45;10.60;;;;;;;;;;4948515;29;21012;-62
2021/06/07 14:11:23;;;;;;;12.80;11.90;;;;;;;;;;4948070;29;20170;-62
2021/06/07 14:13:49;;;;;;;13.67;12.63;;;;;;;;;;4948204;29;21173;-62